createdAt,value
2018-02-08T00:01:24.411Z,18.70
2018-02-08T00:03:54.450Z,23.45
2018-02-08T00:06:24.159Z,19.37
2018-02-08T00:08:53.932Z,21.45
2018-02-08T00:11:23.617Z,21.48
2018-02-08T00:13:53.361Z,18.87
2018-02-08T00:16:23.837Z,16.58
2018-02-08T00:18:53.645Z,22.27
2018-02-08T00:21:23.351Z,23.10
2018-02-08T00:23:53.089Z,20.37
2018-02-08T00:26:22.799Z,20.73
2018-02-08T00:28:52.776Z,16.15
2018-02-08T00:31:22.659Z,17.87
2018-02-08T00:33:53.224Z,21.00
2018-02-08T00:36:23.149Z,16.05
2018-02-08T00:38:52.967Z,18.20
2018-02-08T00:41:22.809Z,23.12
2018-02-08T00:43:52.588Z,21.83
2018-02-08T00:46:22.342Z,16.67
2018-02-08T00:48:52.059Z,20.33
2018-02-08T00:51:22.781Z,25.27
2018-02-08T00:53:52.481Z,25.27
2018-02-08T00:56:22.251Z,24.85
2018-02-08T00:58:51.973Z,23.65
2018-02-08T01:01:25.924Z,17.90
2018-02-08T01:03:55.618Z,17.08
2018-02-08T01:06:25.390Z,24.17
2018-02-08T01:08:55.275Z,27.05
2018-02-08T01:11:25.812Z,18.67
2018-02-08T01:13:55.556Z,19.58
2018-02-08T01:16:25.272Z,16.73
2018-02-08T01:18:55.315Z,20.40
2018-02-08T01:21:25.103Z,22.87
2018-02-08T01:23:55.563Z,25.65
2018-02-08T01:26:25.329Z,27.42
2018-02-08T01:28:55.138Z,19.37
2018-02-08T01:31:24.933Z,23.50
2018-02-08T01:33:54.846Z,24.45
2018-02-08T01:36:24.564Z,16.10
2018-02-08T01:38:54.231Z,16.85
2018-02-08T01:41:23.979Z,14.43
2018-02-08T01:43:53.882Z,20.00
2018-02-08T01:46:23.601Z,22.13
2018-02-08T01:48:53.263Z,17.05
2018-02-08T01:51:23.057Z,19.55
2018-02-08T01:53:52.753Z,16.55
2018-02-08T01:56:22.487Z,15.80
2018-02-08T01:58:52.260Z,14.40
2018-02-08T02:01:21.994Z,16.58
2018-02-08T02:03:51.862Z,17.67
2018-02-08T02:06:21.759Z,19.98
2018-02-08T02:08:52.276Z,16.75
2018-02-08T02:11:22.067Z,21.33
2018-02-08T02:13:52.103Z,20.52
2018-02-08T02:16:21.938Z,21.05
2018-02-08T02:18:52.491Z,17.35
2018-02-08T02:21:22.211Z,21.65
2018-02-08T02:23:52.087Z,19.10
2018-02-08T02:26:22.529Z,17.80
2018-02-08T02:28:52.295Z,17.83
2018-02-08T02:31:22.077Z,21.45
2018-02-08T02:33:51.907Z,19.33
2018-02-08T02:36:24.696Z,16.55
2018-02-08T02:38:54.541Z,18.42
2018-02-08T02:41:25.069Z,19.73
2018-02-08T02:43:54.833Z,19.40
2018-02-08T02:46:24.540Z,19.50
2018-02-08T02:48:54.366Z,17.80
2018-02-08T02:51:24.128Z,18.20
2018-02-08T02:53:53.883Z,20.33
2018-02-08T02:56:23.666Z,18.17
2018-02-08T02:58:53.444Z,23.40
2018-02-08T03:01:23.985Z,16.90
2018-02-08T03:03:54.466Z,21.23
2018-02-08T03:06:24.136Z,22.15
2018-02-08T03:08:53.914Z,27.55
2018-02-08T03:11:24.367Z,21.23
2018-02-08T03:13:54.161Z,22.33
2018-02-08T03:16:24.690Z,31.05
2018-02-08T03:18:55.248Z,22.02
2018-02-08T03:21:24.999Z,18.52
2018-02-08T03:23:55.505Z,15.50
2018-02-08T03:26:25.334Z,18.30
2018-02-08T03:28:57.810Z,18.75
2018-02-08T03:31:27.615Z,19.33
2018-02-08T03:33:57.468Z,19.42
2018-02-08T03:36:28.032Z,17.75
2018-02-08T03:38:57.803Z,20.15
2018-02-08T03:41:27.597Z,21.23
2018-02-08T03:43:57.300Z,17.75
2018-02-08T03:46:27.144Z,18.67
2018-02-08T03:48:57.657Z,21.08
2018-02-08T03:51:27.332Z,18.58
2018-02-08T03:53:57.082Z,19.87
2018-02-08T03:56:27.555Z,19.00
2018-02-08T03:58:57.360Z,20.40
2018-02-08T04:01:27.338Z,18.10
2018-02-08T04:03:57.782Z,14.82
2018-02-08T04:06:27.639Z,22.50
2018-02-08T04:08:57.345Z,22.37
2018-02-08T04:11:27.043Z,22.23
2018-02-08T04:13:57.003Z,19.77
2018-02-08T04:16:26.730Z,19.08
2018-02-08T04:18:56.487Z,20.17
2018-02-08T04:21:26.220Z,21.70
2018-02-08T04:23:55.977Z,22.15
2018-02-08T04:26:25.683Z,21.62
2018-02-08T04:28:56.146Z,18.58
2018-02-08T04:31:25.939Z,20.37
2018-02-08T04:33:55.938Z,18.87
2018-02-08T04:36:25.851Z,23.60
2018-02-08T04:41:13.421Z,21.23
2018-02-08T04:44:00.138Z,20.83
2018-02-08T04:47:09.312Z,21.10
2018-02-08T04:49:39.089Z,19.08
2018-02-08T04:52:09.662Z,19.80
2018-02-08T04:54:39.455Z,20.23
2018-02-08T04:57:09.282Z,23.70
2018-02-08T04:59:39.791Z,23.92
2018-02-08T05:02:09.671Z,17.77
2018-02-08T05:04:39.502Z,18.92
2018-02-08T05:07:09.206Z,18.12
2018-02-08T05:09:39.704Z,26.92
2018-02-08T05:12:16.107Z,23.23
2018-02-08T05:14:45.934Z,17.20
2018-02-08T05:17:15.741Z,19.50
2018-02-08T05:19:45.536Z,17.67
2018-02-08T05:22:15.359Z,19.95
2018-02-08T05:24:45.090Z,19.55
2018-02-08T05:27:15.648Z,21.20
2018-02-08T05:29:45.428Z,21.85
2018-02-08T05:32:15.186Z,20.45
2018-02-08T05:34:44.959Z,18.65
2018-02-08T05:37:15.496Z,20.00
2018-02-08T05:39:45.304Z,19.70
2018-02-08T05:42:15.838Z,20.77
2018-02-08T05:44:46.435Z,20.05
2018-02-08T05:47:16.180Z,20.75
2018-02-08T05:49:46.674Z,19.52
2018-02-08T05:52:16.787Z,20.90
2018-02-08T05:54:46.573Z,20.30
2018-02-08T05:57:16.350Z,22.08
2018-02-08T05:59:46.883Z,20.37
2018-02-08T06:02:17.542Z,21.67
2018-02-08T06:04:47.307Z,22.20
2018-02-08T06:07:17.917Z,19.08
2018-02-08T06:09:48.559Z,19.48
2018-02-08T06:12:18.276Z,21.25
2018-02-08T06:14:48.783Z,23.73
2018-02-08T06:17:18.647Z,22.35
2018-02-08T06:19:48.350Z,20.48
2018-02-08T06:22:18.091Z,21.40
2018-02-08T06:24:47.902Z,27.75
2018-02-08T06:27:17.961Z,21.83
2018-02-08T06:29:48.481Z,22.30
2018-02-08T06:32:18.237Z,22.10
2018-02-08T06:34:48.352Z,22.58
2018-02-08T06:37:18.300Z,24.55
2018-02-08T06:39:48.193Z,20.40
2018-02-08T06:42:17.884Z,21.87
2018-02-08T06:44:48.229Z,23.50
2018-02-08T06:47:19.770Z,24.40
2018-02-08T06:49:50.555Z,26.10
2018-02-08T06:52:20.422Z,18.27
2018-02-08T06:54:51.405Z,18.70
2018-02-08T06:57:21.079Z,22.83
2018-02-08T06:59:51.500Z,22.20
2018-02-08T07:02:21.260Z,18.25
2018-02-08T07:04:56.072Z,21.42
2018-02-08T07:07:26.064Z,20.62
2018-02-08T07:09:56.124Z,21.02
2018-02-08T07:12:26.119Z,17.87
2018-02-08T07:14:57.715Z,20.10
2018-02-08T07:17:27.620Z,17.73
2018-02-08T07:19:57.324Z,17.42
2018-02-08T07:22:27.399Z,21.70
2018-02-08T07:24:57.162Z,21.80
2018-02-08T07:27:28.448Z,22.27
2018-02-08T07:29:58.219Z,25.12
2018-02-08T07:32:28.898Z,24.25
2018-02-08T07:34:58.601Z,21.20
2018-02-08T07:37:28.808Z,23.52
2018-02-08T07:39:59.008Z,29.60
2018-02-08T07:42:29.202Z,17.15
2018-02-08T07:45:06.243Z,24.87
2018-02-08T07:47:35.977Z,19.85
2018-02-08T07:50:11.987Z,22.45
2018-02-08T07:52:42.774Z,22.37
2018-02-08T07:55:12.622Z,21.75
2018-02-08T07:57:43.122Z,22.37
2018-02-08T08:00:13.208Z,21.12
2018-02-08T08:02:42.938Z,26.80
2018-02-08T08:05:12.719Z,30.62
2018-02-08T08:07:42.467Z,32.17
2018-02-08T08:10:12.433Z,24.73
2018-02-08T08:12:42.242Z,21.77
2018-02-08T08:15:13.441Z,22.75
2018-02-08T08:17:43.178Z,21.70
2018-02-08T08:20:13.000Z,22.23
2018-02-08T08:22:43.564Z,25.95
2018-02-08T08:25:13.362Z,26.40
2018-02-08T08:27:43.197Z,25.05
2018-02-08T08:30:12.862Z,28.55
2018-02-08T08:32:43.447Z,28.52
2018-02-08T08:35:13.272Z,28.92
2018-02-08T08:37:43.010Z,26.45
2018-02-08T08:40:14.214Z,26.85
2018-02-08T08:42:43.924Z,27.73
2018-02-08T08:45:13.729Z,29.37
2018-02-08T08:47:43.431Z,30.77
2018-02-08T08:50:13.163Z,25.55
2018-02-08T08:52:42.872Z,23.40
2018-02-08T08:55:12.881Z,28.35
2018-02-08T08:57:42.695Z,30.92
2018-02-08T09:00:12.497Z,26.30
2018-02-08T09:02:42.341Z,26.02
2018-02-08T09:05:12.087Z,27.55
2018-02-08T09:07:42.760Z,37.83
2018-02-08T09:10:12.656Z,36.17
2018-02-08T09:12:42.436Z,27.17
2018-02-08T09:15:13.097Z,33.20
2018-02-08T09:17:42.914Z,25.40
2018-02-08T09:20:12.721Z,30.77
2018-02-08T09:22:42.525Z,24.90
2018-02-08T09:25:12.259Z,29.70
2018-02-08T09:27:42.029Z,31.23
2018-02-08T09:30:12.642Z,27.55
2018-02-08T09:32:43.235Z,26.48
2018-02-08T09:35:13.717Z,35.35
2018-02-08T09:37:44.372Z,25.50
2018-02-08T09:40:14.323Z,23.35
2018-02-08T09:42:44.362Z,34.58
2018-02-08T09:45:14.112Z,29.92
2018-02-08T09:47:43.898Z,34.65
2018-02-08T09:50:14.371Z,30.55
2018-02-08T09:52:44.103Z,33.40
2018-02-08T09:55:13.984Z,41.30
2018-02-08T09:57:43.724Z,23.90
2018-02-08T10:00:13.492Z,36.17
2018-02-08T10:02:42.392Z,28.02
2018-02-08T10:05:12.164Z,33.97
2018-02-08T10:07:42.630Z,33.88
2018-02-08T10:10:12.359Z,36.88
2018-02-08T10:12:42.102Z,28.02
2018-02-08T10:15:11.903Z,36.63
2018-02-08T10:17:41.771Z,37.58
2018-02-08T10:20:11.535Z,28.05
2018-02-08T10:22:41.237Z,37.90
2018-02-08T10:25:10.943Z,31.00
2018-02-08T10:27:40.971Z,38.05
2018-02-08T10:30:10.680Z,38.20
2018-02-08T10:32:40.397Z,33.15
2018-02-08T10:35:11.208Z,36.65
2018-02-08T10:37:41.163Z,34.85
2018-02-08T10:40:11.857Z,38.42
2018-02-08T10:42:41.574Z,169.87
2018-02-08T10:45:11.330Z,77.07
2018-02-08T10:47:41.175Z,39.67
2018-02-08T10:50:11.739Z,35.35
2018-02-08T10:52:42.365Z,38.22
2018-02-08T10:55:12.057Z,29.80
2018-02-08T10:57:41.775Z,25.65
2018-02-08T11:00:11.504Z,31.92
2018-02-08T11:02:41.434Z,32.72
2018-02-08T11:05:12.110Z,34.33
2018-02-08T11:07:41.836Z,43.03
2018-02-08T11:10:11.651Z,35.13
2018-02-08T11:12:41.680Z,29.95
2018-02-08T11:15:11.453Z,33.17
2018-02-08T11:17:41.334Z,28.40
2018-02-08T11:20:11.174Z,31.85
2018-02-08T11:22:42.181Z,32.58
2018-02-08T11:25:12.660Z,31.02
2018-02-08T11:27:42.423Z,38.95
2018-02-08T11:30:12.353Z,38.58
2018-02-08T11:32:42.107Z,34.10
2018-02-08T11:35:13.751Z,36.05
2018-02-08T11:37:43.415Z,33.97
2018-02-08T11:40:13.197Z,39.80
2018-02-08T11:42:43.347Z,30.52
2018-02-08T11:45:13.145Z,29.95
2018-02-08T11:47:44.042Z,31.25
2018-02-08T11:50:14.138Z,31.10
2018-02-08T11:52:43.918Z,30.85
2018-02-08T11:55:14.571Z,35.88
2018-02-08T11:57:45.556Z,33.30
2018-02-08T12:00:15.289Z,31.33
2018-02-08T12:02:45.903Z,31.10
2018-02-08T12:05:15.780Z,32.58
2018-02-08T12:07:45.530Z,30.88
2018-02-08T12:10:15.321Z,39.22
2018-02-08T12:12:45.261Z,34.80
2018-02-08T12:15:15.171Z,34.15
2018-02-08T12:17:44.994Z,40.92
2018-02-08T12:20:15.568Z,35.40
2018-02-08T12:22:45.536Z,36.17
2018-02-08T12:25:15.332Z,35.92
2018-02-08T12:27:45.230Z,41.28
2018-02-08T12:30:15.024Z,34.38
2018-02-08T12:32:44.742Z,32.75
2018-02-08T12:35:14.543Z,30.80
2018-02-08T12:37:44.375Z,29.40
2018-02-08T12:40:14.275Z,31.02
2018-02-08T12:42:44.033Z,36.42
2018-02-08T12:45:13.898Z,41.05
2018-02-08T12:47:43.804Z,34.97
2018-02-08T12:50:13.620Z,29.17
2018-02-08T12:52:44.132Z,26.40
2018-02-08T12:55:13.900Z,33.08
2018-02-08T12:57:43.634Z,34.90
2018-02-08T13:00:14.263Z,34.85
2018-02-08T13:02:45.087Z,30.23
2018-02-08T13:05:15.684Z,35.50
2018-02-08T13:07:46.230Z,31.10
2018-02-08T13:10:16.050Z,30.02
2018-02-08T13:12:46.026Z,28.23
2018-02-08T13:15:15.836Z,32.70
2018-02-08T13:17:46.895Z,24.90
2018-02-08T13:20:16.705Z,27.65
2018-02-08T13:22:46.448Z,25.05
2018-02-08T13:25:16.760Z,25.12
2018-02-08T13:27:46.761Z,21.27
2018-02-08T13:30:16.756Z,26.23
2018-02-08T13:32:46.571Z,24.07
2018-02-08T13:35:16.455Z,29.10
2018-02-08T13:37:47.056Z,33.13
2018-02-08T13:40:17.025Z,23.37
2018-02-08T13:42:46.800Z,29.35
2018-02-08T13:45:21.369Z,24.77
2018-02-08T13:47:51.164Z,24.50
2018-02-08T13:50:21.099Z,29.47
2018-02-08T13:52:50.939Z,26.90
2018-02-08T13:55:20.995Z,22.80
2018-02-08T13:57:50.995Z,24.13
2018-02-08T14:00:21.774Z,30.30
2018-02-08T14:02:51.580Z,34.07
2018-02-08T14:05:21.526Z,26.97
2018-02-08T14:07:51.262Z,24.83
2018-02-08T14:10:21.334Z,26.57
2018-02-08T14:12:51.086Z,24.80
2018-02-08T14:15:20.889Z,33.23
2018-02-08T14:17:50.602Z,33.97
2018-02-08T14:20:20.350Z,30.30
2018-02-08T14:22:50.902Z,31.40
2018-02-08T14:25:20.789Z,23.73
2018-02-08T14:27:51.288Z,25.90
2018-02-08T14:30:21.105Z,25.67
2018-02-08T14:32:50.803Z,24.80
2018-02-08T14:35:20.587Z,31.67
2018-02-08T14:37:50.325Z,27.13
2018-02-08T14:40:20.172Z,34.90
2018-02-08T14:42:50.691Z,26.57
2018-02-08T14:45:21.418Z,25.23
2018-02-08T14:47:51.964Z,23.97
2018-02-08T14:50:22.632Z,31.77
2018-02-08T14:52:52.428Z,26.85
2018-02-08T14:55:22.202Z,25.17
2018-02-08T14:57:52.163Z,25.60
2018-02-08T15:00:22.229Z,28.20
2018-02-08T15:02:52.167Z,25.53
2018-02-08T15:05:22.057Z,29.05
2018-02-08T15:07:51.823Z,26.65
2018-02-08T15:10:21.886Z,29.58
2018-02-08T15:12:51.719Z,29.92
2018-02-08T15:15:22.381Z,23.45
2018-02-08T15:17:52.092Z,25.37
2018-02-08T15:20:21.893Z,24.92
2018-02-08T15:22:51.744Z,24.27
2018-02-08T15:25:21.613Z,26.10
2018-02-08T15:27:51.490Z,21.65
2018-02-08T15:30:21.516Z,28.85
2018-02-08T15:32:51.279Z,19.70
2018-02-08T15:35:21.102Z,26.45
2018-02-08T15:37:50.960Z,27.40
2018-02-08T15:40:20.970Z,23.25
2018-02-08T15:42:52.154Z,24.35
2018-02-08T15:45:22.025Z,25.10
2018-02-08T15:47:51.732Z,26.20
2018-02-08T15:50:22.110Z,22.77
2018-02-08T15:52:52.068Z,22.20
2018-02-08T15:55:21.897Z,22.67
2018-02-08T15:57:52.460Z,22.92
2018-02-08T16:00:22.197Z,19.15
2018-02-08T16:02:52.103Z,18.27
2018-02-08T16:05:22.024Z,22.20
2018-02-08T16:07:51.834Z,25.80
2018-02-08T16:10:21.984Z,22.25
2018-02-08T16:12:51.746Z,20.30
2018-02-08T16:15:22.486Z,19.08
2018-02-08T16:17:52.310Z,21.50
2018-02-08T16:20:22.120Z,19.83
2018-02-08T16:22:51.881Z,22.15
2018-02-08T16:25:22.443Z,21.60
2018-02-08T16:27:52.164Z,18.40
2018-02-08T16:30:22.203Z,18.83
2018-02-08T16:32:51.951Z,16.77
2018-02-08T16:35:22.541Z,21.85
2018-02-08T16:37:52.326Z,19.95
2018-02-08T16:40:22.097Z,20.67
2018-02-08T16:42:51.951Z,28.25
2018-02-08T16:45:21.740Z,22.80
2018-02-08T16:47:51.469Z,22.83
2018-02-08T16:50:21.206Z,23.40
2018-02-08T16:52:51.074Z,27.73
2018-02-08T16:55:21.729Z,21.90
2018-02-08T16:57:51.587Z,24.52
2018-02-08T17:00:21.355Z,20.10
2018-02-08T17:02:51.369Z,23.67
2018-02-08T17:05:21.178Z,23.98
2018-02-08T17:07:50.991Z,21.87
2018-02-08T17:10:20.958Z,19.70
2018-02-08T17:12:50.730Z,30.42
2018-02-08T17:15:20.447Z,21.35
2018-02-08T17:17:50.213Z,23.08
2018-02-08T17:20:20.008Z,22.73
2018-02-08T17:22:49.865Z,27.92
2018-02-08T17:25:19.662Z,26.62
2018-02-08T17:27:50.294Z,24.60
2018-02-08T17:30:20.227Z,27.75
2018-02-08T17:32:50.027Z,23.70
2018-02-08T17:35:19.845Z,22.75
2018-02-08T17:37:49.781Z,24.65
2018-02-08T17:40:19.508Z,27.67
2018-02-08T17:42:49.366Z,22.23
2018-02-08T17:45:19.211Z,27.25
2018-02-08T17:47:49.350Z,28.25
2018-02-08T17:50:19.206Z,24.23
2018-02-08T17:52:49.021Z,27.45
2018-02-08T17:55:20.093Z,27.02
2018-02-08T17:57:49.874Z,26.15
2018-02-08T18:00:20.578Z,27.85
2018-02-08T18:02:50.513Z,32.90
2018-02-08T18:05:21.061Z,33.95
2018-02-08T18:07:50.791Z,26.35
2018-02-08T18:10:20.795Z,28.83
2018-02-08T18:12:50.573Z,27.90
2018-02-08T18:15:21.265Z,27.80
2018-02-08T18:17:51.065Z,25.92
2018-02-08T18:20:21.204Z,26.02
2018-02-08T18:22:51.159Z,29.05
2018-02-08T18:25:22.855Z,23.00
2018-02-08T18:27:52.650Z,27.30
2018-02-08T18:30:22.842Z,29.27
2018-02-08T18:32:53.413Z,26.75
2018-02-08T18:35:23.276Z,24.42
2018-02-08T18:37:53.912Z,27.85
2018-02-08T18:40:24.242Z,26.08
2018-02-08T18:42:54.768Z,26.50
2018-02-08T18:45:24.840Z,27.45
2018-02-08T18:47:54.735Z,23.45
2018-02-08T18:50:24.672Z,25.15
2018-02-08T18:52:54.338Z,30.50
2018-02-08T18:55:24.209Z,32.28
2018-02-08T18:57:54.055Z,30.45
2018-02-08T19:00:24.614Z,23.92
2018-02-08T19:02:54.312Z,24.30
2018-02-08T19:05:24.481Z,30.67
2018-02-08T19:07:54.185Z,23.80
2018-02-08T19:10:24.677Z,25.70
2018-02-08T19:12:54.496Z,25.00
2018-02-08T19:15:24.513Z,24.15
2018-02-08T19:17:54.553Z,33.60
2018-02-08T19:20:24.582Z,31.85
2018-02-08T19:22:54.288Z,27.60
2018-02-08T19:25:25.221Z,28.15
2018-02-08T19:27:55.014Z,28.75
2018-02-08T19:30:25.512Z,25.75
2018-02-08T19:32:55.403Z,24.27
2018-02-08T19:35:25.936Z,26.90
2018-02-08T19:37:56.892Z,27.23
2018-02-08T19:40:27.600Z,29.37
2018-02-08T19:42:59.597Z,29.58
2018-02-08T19:45:29.312Z,23.87
2018-02-08T19:47:59.936Z,28.05
2018-02-08T19:50:29.679Z,28.52
2018-02-08T19:52:59.510Z,29.42
2018-02-08T19:55:30.135Z,25.88
2018-02-08T19:58:02.142Z,32.08
2018-02-08T20:00:32.733Z,27.20
2018-02-08T20:03:02.843Z,25.88
2018-02-08T20:05:32.629Z,31.20
2018-02-08T20:08:03.170Z,30.08
2018-02-08T20:10:32.939Z,32.58
2018-02-08T20:13:04.118Z,28.35
2018-02-08T20:15:33.880Z,28.83
2018-02-08T20:18:03.869Z,25.52
2018-02-08T20:20:33.537Z,29.37
2018-02-08T20:23:04.085Z,37.10
2018-02-08T20:25:35.475Z,28.83
2018-02-08T20:28:05.581Z,35.92
2018-02-08T20:30:35.349Z,31.10
2018-02-08T20:33:06.179Z,31.00
2018-02-08T20:35:36.811Z,29.80
2018-02-08T20:38:06.704Z,29.35
2018-02-08T20:40:37.553Z,33.30
2018-02-08T20:43:13.463Z,32.38
2018-02-08T20:45:43.335Z,36.78
2018-02-08T20:48:13.399Z,32.08
2018-02-08T20:50:43.245Z,33.97
2018-02-08T20:53:13.849Z,39.25
2018-02-08T20:55:43.944Z,31.87
2018-02-08T20:58:13.785Z,38.20
2018-02-08T21:00:43.648Z,40.25
2018-02-08T21:03:13.467Z,47.30
2018-02-08T21:05:44.033Z,35.55
2018-02-08T21:08:15.721Z,32.08
2018-02-08T21:10:45.847Z,42.62
2018-02-08T21:13:15.744Z,33.75
2018-02-08T21:15:46.399Z,32.00
2018-02-08T21:18:16.265Z,31.27
2018-02-08T21:20:46.080Z,34.95
2018-02-08T21:23:16.028Z,35.35
2018-02-08T21:25:45.728Z,33.28
2018-02-08T21:28:15.516Z,35.72
2018-02-08T21:30:45.383Z,41.28
2018-02-08T21:33:15.132Z,34.03
2018-02-08T21:35:44.975Z,38.33
2018-02-08T21:38:15.540Z,37.90
2018-02-08T21:40:45.471Z,38.72
2018-02-08T21:43:15.265Z,37.53
2018-02-08T21:45:45.026Z,42.47
2018-02-08T21:48:14.813Z,37.53
2018-02-08T21:50:44.537Z,36.08
2018-02-08T21:53:14.473Z,36.88
2018-02-08T21:55:44.232Z,42.67
2018-02-08T21:58:13.940Z,34.90
2018-02-08T22:00:43.760Z,35.50
2018-02-08T22:03:13.482Z,38.75
2018-02-08T22:05:43.190Z,42.65
2018-02-08T22:08:12.985Z,39.88
2018-02-08T22:10:42.814Z,40.85
2018-02-08T22:13:12.619Z,39.38
2018-02-08T22:15:43.350Z,41.00
2018-02-08T22:18:13.102Z,38.03
2018-02-08T22:20:42.907Z,36.67
2018-02-08T22:23:12.646Z,44.03
2018-02-08T22:25:42.424Z,34.42
2018-02-08T22:28:12.169Z,36.42
2018-02-08T22:30:42.018Z,40.92
2018-02-08T22:33:11.823Z,42.58
2018-02-08T22:35:43.640Z,34.67
2018-02-08T22:38:14.260Z,39.15
2018-02-08T22:40:44.206Z,40.83
2018-02-08T22:43:13.994Z,46.25
2018-02-08T22:45:44.512Z,40.97
2018-02-08T22:48:14.977Z,40.65
2018-02-08T22:50:44.883Z,36.60
2018-02-08T22:53:14.610Z,41.95
2018-02-08T22:55:44.378Z,40.20
2018-02-08T22:58:14.331Z,46.22
2018-02-08T23:00:44.052Z,43.00
2018-02-08T23:03:13.722Z,45.28
2018-02-08T23:05:43.527Z,47.55
2018-02-08T23:08:14.074Z,45.08
2018-02-08T23:10:43.871Z,49.85
2018-02-08T23:13:13.688Z,41.08
2018-02-08T23:15:44.241Z,50.17
2018-02-08T23:18:14.034Z,48.33
2018-02-08T23:20:43.743Z,40.10
2018-02-08T23:23:13.429Z,39.53
2018-02-08T23:25:43.230Z,47.03
2018-02-08T23:28:12.905Z,40.80
2018-02-08T23:30:42.657Z,45.40
2018-02-08T23:33:12.346Z,48.63
2018-02-08T23:35:42.053Z,47.83
2018-02-08T23:38:11.815Z,45.28
2018-02-08T23:40:41.579Z,49.95
2018-02-08T23:43:11.293Z,41.35
2018-02-08T23:45:41.003Z,51.67
2018-02-08T23:48:10.756Z,49.10
2018-02-08T23:50:41.044Z,50.92
2018-02-08T23:53:10.868Z,45.67
2018-02-08T23:55:40.731Z,47.20
2018-02-08T23:58:10.484Z,48.10
